Time;durP1;ratioP1;P1;durP2;ratioP2;P2;SDS_P1;SDS_P2;PMS_P1;PMS_P2;Temp;Humidity;BMP_temperature;BMP_pressure;BME280_temperature;BME280_humidity;BME280_pressure;Samples;Min_cycle;Max_cycle;Signal;HPM_P1;HPM_P2
2022/10/09 00:01:30;;;;;;;31.27;15.50;;;;;;;;;;4970862;28;20049;-63
2022/10/09 00:03:57;;;;;;;29.17;15.17;;;;;;;;;;4970602;28;20043;-63
2022/10/09 00:06:28;;;;;;;31.90;13.73;;;;;;;;;;4970764;28;20068;-63
2022/10/09 00:08:54;;;;;;;31.50;13.23;;;;;;;;;;4970789;28;20077;-63
2022/10/09 00:11:25;;;;;;;32.57;14.63;;;;;;;;;;4969399;28;20105;-63
2022/10/09 00:13:52;;;;;;;31.87;14.47;;;;;;;;;;4970153;28;20056;-63
2022/10/09 00:16:20;;;;;;;26.70;13.60;;;;;;;;;;4970761;28;20133;-63
2022/10/09 00:18:46;;;;;;;33.63;15.27;;;;;;;;;;4970154;28;20054;-63
2022/10/09 00:21:23;;;;;;;25.57;12.30;;;;;;;;;;4970088;28;20146;-63
2022/10/09 00:23:49;;;;;;;26.23;14.03;;;;;;;;;;4970148;28;20121;-63
2022/10/09 00:26:16;;;;;;;29.67;14.87;;;;;;;;;;4970449;28;20101;-63
2022/10/09 00:28:42;;;;;;;19.77;12.73;;;;;;;;;;4969690;28;20050;-63
2022/10/09 00:31:08;;;;;;;36.33;14.47;;;;;;;;;;4970297;28;20050;-63
2022/10/09 00:33:35;;;;;;;41.53;15.37;;;;;;;;;;4968999;28;20058;-63
2022/10/09 00:36:04;;;;;;;33.60;14.63;;;;;;;;;;4970213;28;20075;-63
2022/10/09 00:38:31;;;;;;;32.30;13.90;;;;;;;;;;4970211;28;20049;-62
2022/10/09 00:40:57;;;;;;;29.00;12.90;;;;;;;;;;4969476;28;20054;-64
2022/10/09 00:43:43;;;;;;;27.40;13.73;;;;;;;;;;4970208;28;20050;-63
2022/10/09 00:46:16;;;;;;;34.10;13.93;;;;;;;;;;4969950;28;20053;-63
2022/10/09 00:48:42;;;;;;;24.65;13.95;;;;;;;;;;4969824;28;20117;-63
2022/10/09 00:51:08;;;;;;;32.70;14.47;;;;;;;;;;4970046;28;20098;-63
2022/10/09 00:53:35;;;;;;;31.73;14.93;;;;;;;;;;4969653;28;20424;-63
2022/10/09 00:56:01;;;;;;;31.33;14.30;;;;;;;;;;4970182;28;20049;-63
2022/10/09 00:58:27;;;;;;;48.43;16.77;;;;;;;;;;4969804;28;20397;-63
2022/10/09 01:00:53;;;;;;;34.23;14.27;;;;;;;;;;4969672;28;20047;-63
2022/10/09 01:03:19;;;;;;;39.57;15.40;;;;;;;;;;4969644;28;20047;-63
2022/10/09 01:06:04;;;;;;;33.80;16.57;;;;;;;;;;4969920;28;20066;-63
2022/10/09 01:08:46;;;;;;;33.57;15.70;;;;;;;;;;4969765;28;20050;-63
2022/10/09 01:11:17;;;;;;;31.97;15.30;;;;;;;;;;4970087;28;20047;-63
2022/10/09 01:13:52;;;;;;;27.50;13.40;;;;;;;;;;4969883;28;20051;-63
2022/10/09 01:16:18;;;;;;;31.00;15.63;;;;;;;;;;4970014;28;20517;-63
2022/10/09 01:18:48;;;;;;;33.07;13.90;;;;;;;;;;4969596;28;20078;-60
2022/10/09 01:21:25;;;;;;;35.00;15.30;;;;;;;;;;4969807;28;20051;-60
2022/10/09 01:24:00;;;;;;;37.97;15.90;;;;;;;;;;4969996;28;20047;-61
2022/10/09 01:26:45;;;;;;;37.43;15.77;;;;;;;;;;4970995;28;20133;-60
2022/10/09 01:29:13;;;;;;;25.27;14.47;;;;;;;;;;4973045;28;20051;-60
2022/10/09 01:31:41;;;;;;;39.20;17.40;;;;;;;;;;4973243;28;20105;-61
2022/10/09 01:34:08;;;;;;;29.13;14.20;;;;;;;;;;4973313;28;20050;-60
2022/10/09 01:36:35;;;;;;;37.67;15.70;;;;;;;;;;4973228;28;20043;-61
2022/10/09 01:39:02;;;;;;;34.37;16.07;;;;;;;;;;4973352;28;20134;-60
2022/10/09 01:41:28;;;;;;;27.23;14.13;;;;;;;;;;4973341;28;20134;-60
2022/10/09 01:43:55;;;;;;;38.43;16.03;;;;;;;;;;4973065;28;20094;-60
2022/10/09 01:46:22;;;;;;;28.23;15.53;;;;;;;;;;4973269;28;20054;-60
2022/10/09 01:49:07;;;;;;;28.43;14.43;;;;;;;;;;4972801;28;20086;-61
2022/10/09 01:51:38;;;;;;;28.50;15.23;;;;;;;;;;4973137;28;20575;-61
2022/10/09 01:54:05;;;;;;;30.97;14.83;;;;;;;;;;4972888;28;20392;-60
2022/10/09 01:56:33;;;;;;;34.50;15.60;;;;;;;;;;4971290;28;20070;-60
2022/10/09 01:59:01;;;;;;;36.13;15.30;;;;;;;;;;4972781;28;20653;-61
2022/10/09 02:01:29;;;;;;;40.07;17.07;;;;;;;;;;4971659;28;20405;-61
2022/10/09 02:03:55;;;;;;;38.23;15.97;;;;;;;;;;4973026;28;20043;-60
2022/10/09 02:06:21;;;;;;;27.20;14.07;;;;;;;;;;4972467;28;20053;-60
2022/10/09 02:08:52;;;;;;;36.37;15.37;;;;;;;;;;4972948;28;20066;-60
2022/10/09 02:11:18;;;;;;;38.83;16.00;;;;;;;;;;4972641;28;20043;-60
2022/10/09 02:13:46;;;;;;;40.50;16.73;;;;;;;;;;4972925;28;20089;-61
2022/10/09 02:16:16;;;;;;;34.67;14.90;;;;;;;;;;4972588;28;20456;-60
2022/10/09 02:18:44;;;;;;;29.67;15.67;;;;;;;;;;4972824;28;20145;-60
2022/10/09 02:21:15;;;;;;;30.70;14.00;;;;;;;;;;4972603;28;20059;-60
2022/10/09 02:23:43;;;;;;;25.30;14.43;;;;;;;;;;4972405;28;20133;-61
2022/10/09 02:26:09;;;;;;;27.40;13.40;;;;;;;;;;4972629;28;20054;-60
2022/10/09 02:28:36;;;;;;;33.40;15.63;;;;;;;;;;4971824;28;20500;-60
2022/10/09 02:31:11;;;;;;;30.20;15.20;;;;;;;;;;4972216;28;20416;-60
2022/10/09 02:33:37;;;;;;;29.37;14.43;;;;;;;;;;4971882;28;20054;-63
2022/10/09 02:36:03;;;;;;;33.00;14.57;;;;;;;;;;4970967;28;20109;-63
2022/10/09 02:38:30;;;;;;;35.13;16.67;;;;;;;;;;4970510;28;20055;-63
2022/10/09 02:41:00;;;;;;;39.30;16.77;;;;;;;;;;4972287;28;20138;-63
2022/10/09 02:43:26;;;;;;;34.43;14.17;;;;;;;;;;4972039;28;20038;-63
2022/10/09 02:45:52;;;;;;;36.43;15.70;;;;;;;;;;4972012;28;20046;-63
2022/10/09 02:48:18;;;;;;;37.03;16.00;;;;;;;;;;4971823;28;20386;-63
2022/10/09 02:50:44;;;;;;;30.97;14.83;;;;;;;;;;4971891;28;20039;-63
2022/10/09 02:53:10;;;;;;;30.27;14.60;;;;;;;;;;4971903;28;20405;-63
2022/10/09 02:55:36;;;;;;;23.40;12.53;;;;;;;;;;4970490;28;20043;-63
2022/10/09 02:58:03;;;;;;;31.50;14.73;;;;;;;;;;4971860;28;20050;-63
2022/10/09 03:00:29;;;;;;;32.53;14.57;;;;;;;;;;4971755;28;20531;-63
2022/10/09 03:02:55;;;;;;;28.73;14.47;;;;;;;;;;4972048;28;20054;-63
2022/10/09 03:05:21;;;;;;;24.77;13.17;;;;;;;;;;4971844;28;20051;-63
2022/10/09 03:07:50;;;;;;;24.73;12.93;;;;;;;;;;4972175;28;20089;-63
2022/10/09 03:10:19;;;;;;;26.07;13.13;;;;;;;;;;4971870;28;20054;-63
2022/10/09 03:12:45;;;;;;;29.80;14.13;;;;;;;;;;4971984;28;20073;-63
2022/10/09 03:15:11;;;;;;;28.60;13.73;;;;;;;;;;4971595;28;20121;-63
2022/10/09 03:17:37;;;;;;;25.80;12.13;;;;;;;;;;4971703;28;20042;-63
2022/10/09 03:20:04;;;;;;;25.17;13.20;;;;;;;;;;4971801;28;20078;-63
2022/10/09 03:22:30;;;;;;;31.40;12.80;;;;;;;;;;4971383;28;20102;-63
2022/10/09 03:24:56;;;;;;;29.53;13.20;;;;;;;;;;4971557;28;20501;-63
2022/10/09 03:27:22;;;;;;;20.87;11.50;;;;;;;;;;4971119;28;20043;-63
2022/10/09 03:29:48;;;;;;;21.97;11.53;;;;;;;;;;4970859;28;20051;-63
2022/10/09 03:32:14;;;;;;;31.77;13.73;;;;;;;;;;4971542;28;20058;-63
2022/10/09 03:34:40;;;;;;;25.67;12.43;;;;;;;;;;4971179;28;20043;-63
2022/10/09 03:37:06;;;;;;;22.10;11.37;;;;;;;;;;4970969;28;20394;-63
2022/10/09 03:39:32;;;;;;;35.07;14.37;;;;;;;;;;4971210;28;20042;-63
2022/10/09 03:41:58;;;;;;;27.73;12.10;;;;;;;;;;4970088;28;20572;-63
2022/10/09 03:44:24;;;;;;;31.93;13.47;;;;;;;;;;4971184;28;20137;-63
2022/10/09 03:46:51;;;;;;;23.87;13.50;;;;;;;;;;4970429;28;20046;-63
2022/10/09 03:49:17;;;;;;;23.53;11.53;;;;;;;;;;4970860;28;20058;-63
2022/10/09 03:51:43;;;;;;;29.90;12.33;;;;;;;;;;4970689;28;20050;-63
2022/10/09 03:54:09;;;;;;;34.77;12.50;;;;;;;;;;4970753;28;20061;-63
2022/10/09 03:56:35;;;;;;;27.70;13.60;;;;;;;;;;4970352;28;20054;-63
2022/10/09 03:59:04;;;;;;;23.33;12.07;;;;;;;;;;4969840;28;20051;-63
2022/10/09 04:01:30;;;;;;;25.37;13.00;;;;;;;;;;4970599;28;20500;-63
2022/10/09 04:03:56;;;;;;;24.40;12.37;;;;;;;;;;4970727;28;20138;-63
2022/10/09 04:06:22;;;;;;;29.70;14.30;;;;;;;;;;4970515;28;20129;-63
2022/10/09 04:08:48;;;;;;;26.43;13.50;;;;;;;;;;4970527;28;20053;-63
2022/10/09 04:11:14;;;;;;;23.30;12.70;;;;;;;;;;4969260;28;20047;-63
2022/10/09 04:13:40;;;;;;;31.40;13.13;;;;;;;;;;4970649;28;20053;-63
2022/10/09 04:16:11;;;;;;;26.53;14.00;;;;;;;;;;4970833;28;20050;-63
2022/10/09 04:18:38;;;;;;;26.23;13.30;;;;;;;;;;4969960;28;20097;-63
2022/10/09 04:21:04;;;;;;;32.23;15.70;;;;;;;;;;4970532;28;20050;-63
2022/10/09 04:23:30;;;;;;;30.03;14.87;;;;;;;;;;4970541;28;20714;-63
2022/10/09 04:25:59;;;;;;;32.93;14.67;;;;;;;;;;4970347;28;20043;-63
2022/10/09 04:28:26;;;;;;;30.33;14.50;;;;;;;;;;4969794;28;20045;-63
2022/10/09 04:30:52;;;;;;;28.50;15.77;;;;;;;;;;4970234;28;20085;-63
2022/10/09 04:33:18;;;;;;;33.63;15.67;;;;;;;;;;4969891;28;20086;-63
2022/10/09 04:35:45;;;;;;;36.33;15.87;;;;;;;;;;4970422;28;20093;-63
2022/10/09 04:38:11;;;;;;;25.13;13.87;;;;;;;;;;4969988;28;20051;-63
2022/10/09 04:40:37;;;;;;;33.63;15.77;;;;;;;;;;4969997;28;20082;-63
2022/10/09 04:43:03;;;;;;;31.30;17.00;;;;;;;;;;4970169;28;20070;-63
2022/10/09 04:45:29;;;;;;;33.80;16.77;;;;;;;;;;4969977;28;20046;-63
2022/10/09 04:47:55;;;;;;;32.93;17.20;;;;;;;;;;4970195;28;20062;-63
2022/10/09 04:50:21;;;;;;;33.80;16.67;;;;;;;;;;4968235;28;20094;-63
2022/10/09 04:52:47;;;;;;;49.67;23.47;;;;;;;;;;4969964;28;20785;-63
2022/10/09 04:55:13;;;;;;;32.30;18.37;;;;;;;;;;4970064;28;20051;-63
2022/10/09 04:57:39;;;;;;;45.47;22.90;;;;;;;;;;4967889;28;20106;-63
2022/10/09 05:00:06;;;;;;;41.43;22.17;;;;;;;;;;4968461;28;20050;-63
2022/10/09 05:02:32;;;;;;;43.03;22.77;;;;;;;;;;4972984;28;20456;-63
2022/10/09 05:04:58;;;;;;;53.33;24.23;;;;;;;;;;4972465;28;20086;-63
2022/10/09 05:07:24;;;;;;;43.67;22.47;;;;;;;;;;4974076;28;20043;-63
2022/10/09 05:09:50;;;;;;;39.33;22.10;;;;;;;;;;4973787;28;20070;-64
2022/10/09 05:12:16;;;;;;;44.53;22.67;;;;;;;;;;4973738;28;20046;-63
2022/10/09 05:14:42;;;;;;;43.90;23.07;;;;;;;;;;4973235;28;20046;-63
2022/10/09 05:17:08;;;;;;;39.67;22.47;;;;;;;;;;4973417;28;20121;-63
2022/10/09 05:19:34;;;;;;;42.17;21.40;;;;;;;;;;4973749;28;20540;-63
2022/10/09 05:22:00;;;;;;;42.77;21.43;;;;;;;;;;4972468;28;20543;-63
2022/10/09 05:24:27;;;;;;;41.83;22.50;;;;;;;;;;4973770;28;20492;-63
2022/10/09 05:26:53;;;;;;;39.43;20.67;;;;;;;;;;4973282;28;20039;-63
2022/10/09 05:29:19;;;;;;;40.57;21.27;;;;;;;;;;4969990;28;20073;-63
2022/10/09 05:31:45;;;;;;;60.07;22.53;;;;;;;;;;4965077;28;20052;-63
2022/10/09 05:34:11;;;;;;;39.70;20.47;;;;;;;;;;4954173;29;20047;-63
2022/10/09 05:36:37;;;;;;;40.80;21.07;;;;;;;;;;4967455;28;20093;-63
2022/10/09 05:39:03;;;;;;;40.33;21.20;;;;;;;;;;4973602;28;20043;-63
2022/10/09 05:41:30;;;;;;;39.83;21.83;;;;;;;;;;4973158;28;20145;-63
2022/10/09 05:43:59;;;;;;;40.53;21.33;;;;;;;;;;4972381;28;20094;-63
2022/10/09 05:46:25;;;;;;;42.50;22.87;;;;;;;;;;4972884;28;20043;-63
2022/10/09 05:48:53;;;;;;;39.00;21.70;;;;;;;;;;4972125;28;20050;-63
2022/10/09 05:51:20;;;;;;;38.67;21.90;;;;;;;;;;4972544;28;20058;-63
2022/10/09 05:53:47;;;;;;;39.73;20.03;;;;;;;;;;4972864;28;20130;-63
2022/10/09 05:56:14;;;;;;;36.83;20.67;;;;;;;;;;4972531;28;20070;-63
2022/10/09 05:58:41;;;;;;;48.30;21.37;;;;;;;;;;4972171;28;20416;-63
2022/10/09 06:01:07;;;;;;;40.90;21.50;;;;;;;;;;4971696;28;20475;-63
2022/10/09 06:03:34;;;;;;;40.43;21.20;;;;;;;;;;4972089;28;20097;-63
2022/10/09 06:06:01;;;;;;;46.33;20.63;;;;;;;;;;4972296;28;20065;-63
2022/10/09 06:08:27;;;;;;;44.13;22.00;;;;;;;;;;4972124;28;20054;-62
2022/10/09 06:10:53;;;;;;;40.87;22.40;;;;;;;;;;4971230;28;20061;-63
2022/10/09 06:13:19;;;;;;;48.30;21.70;;;;;;;;;;4969820;28;20039;-63
2022/10/09 06:15:52;;;;;;;42.50;22.60;;;;;;;;;;4971844;28;20045;-63
2022/10/09 06:18:18;;;;;;;44.50;21.10;;;;;;;;;;4972936;28;20074;-63
2022/10/09 06:20:57;;;;;;;39.40;20.37;;;;;;;;;;4971984;28;20042;-63
2022/10/09 06:23:23;;;;;;;39.60;21.67;;;;;;;;;;4972205;28;20046;-63
2022/10/09 06:25:56;;;;;;;33.30;19.17;;;;;;;;;;4972149;28;20171;-63
2022/10/09 06:28:22;;;;;;;38.22;19.83;;;;;;;;;;4972368;28;20512;-63
2022/10/09 06:30:48;;;;;;;34.67;19.60;;;;;;;;;;4971555;28;20117;-63
2022/10/09 06:33:15;;;;;;;44.90;22.37;;;;;;;;;;4972170;28;20058;-63
2022/10/09 06:35:41;;;;;;;46.67;25.07;;;;;;;;;;4971860;28;20503;-63
2022/10/09 06:38:08;;;;;;;41.53;22.33;;;;;;;;;;4972107;28;20043;-63
2022/10/09 06:40:35;;;;;;;48.93;26.20;;;;;;;;;;4969280;28;20042;-62
2022/10/09 06:43:01;;;;;;;42.53;22.57;;;;;;;;;;4965146;28;20043;-62
2022/10/09 06:45:27;;;;;;;48.17;25.83;;;;;;;;;;4964103;28;20557;-62
2022/10/09 06:47:54;;;;;;;47.43;25.93;;;;;;;;;;4970663;28;20038;-63
2022/10/09 06:50:20;;;;;;;66.23;27.63;;;;;;;;;;4977825;28;20461;-63
2022/10/09 06:52:46;;;;;;;51.73;27.07;;;;;;;;;;4971363;28;20047;-63
2022/10/09 06:55:12;;;;;;;52.63;26.30;;;;;;;;;;4962849;28;20047;-63
2022/10/09 06:57:38;;;;;;;43.20;25.33;;;;;;;;;;4963548;28;20752;-63
2022/10/09 07:00:05;;;;;;;47.93;26.73;;;;;;;;;;4951774;28;20047;-63
2022/10/09 07:02:35;;;;;;;46.27;25.00;;;;;;;;;;4957669;28;20046;-63
2022/10/09 07:05:01;;;;;;;36.33;22.10;;;;;;;;;;4954913;28;20048;-63
2022/10/09 07:07:28;;;;;;;51.77;25.30;;;;;;;;;;4963193;28;20050;-63
2022/10/09 07:09:54;;;;;;;37.13;21.83;;;;;;;;;;4970561;28;20071;-63
2022/10/09 07:12:20;;;;;;;41.20;22.77;;;;;;;;;;4966789;28;20462;-63
2022/10/09 07:14:46;;;;;;;61.97;25.50;;;;;;;;;;4966455;28;20055;-63
2022/10/09 07:17:12;;;;;;;41.07;23.23;;;;;;;;;;4963080;28;20051;-63
2022/10/09 07:19:38;;;;;;;35.63;21.83;;;;;;;;;;4963039;28;20405;-63
2022/10/09 07:22:04;;;;;;;39.77;22.33;;;;;;;;;;4956188;28;20043;-63
2022/10/09 07:24:30;;;;;;;37.43;21.93;;;;;;;;;;4960474;28;20119;-63
2022/10/09 07:26:56;;;;;;;35.33;20.90;;;;;;;;;;4960910;28;20050;-63
2022/10/09 07:29:22;;;;;;;32.90;20.47;;;;;;;;;;4963646;28;20047;-63
2022/10/09 07:31:49;;;;;;;35.03;21.73;;;;;;;;;;4968408;28;20051;-63
2022/10/09 07:34:15;;;;;;;40.17;22.10;;;;;;;;;;4970346;28;20145;-63
2022/10/09 07:36:41;;;;;;;33.97;19.83;;;;;;;;;;4962239;28;20129;-63
2022/10/09 07:39:07;;;;;;;29.97;19.70;;;;;;;;;;4970135;28;20050;-63
2022/10/09 07:41:33;;;;;;;31.20;19.47;;;;;;;;;;4960376;28;20050;-63
2022/10/09 07:44:00;;;;;;;40.13;22.37;;;;;;;;;;4959352;28;20569;-63
2022/10/09 07:46:26;;;;;;;35.00;20.90;;;;;;;;;;4960360;28;20131;-63
2022/10/09 07:48:55;;;;;;;32.77;19.40;;;;;;;;;;4969007;28;20039;-63
2022/10/09 07:51:21;;;;;;;37.63;23.33;;;;;;;;;;4970159;28;20070;-63
2022/10/09 07:53:47;;;;;;;30.67;20.03;;;;;;;;;;4960572;28;20179;-62
2022/10/09 07:56:18;;;;;;;34.90;20.43;;;;;;;;;;4961599;28;20043;-63
2022/10/09 07:58:47;;;;;;;33.90;19.70;;;;;;;;;;4966903;28;20038;-63
2022/10/09 08:01:13;;;;;;;33.17;20.13;;;;;;;;;;4966920;28;20051;-63
2022/10/09 08:03:39;;;;;;;34.27;20.53;;;;;;;;;;4967789;28;20047;-63
2022/10/09 08:06:06;;;;;;;30.53;19.00;;;;;;;;;;4968363;28;20046;-63
2022/10/09 08:08:32;;;;;;;30.77;18.97;;;;;;;;;;4960300;28;20051;-63
2022/10/09 08:10:58;;;;;;;27.33;17.27;;;;;;;;;;4955895;28;20366;-63
2022/10/09 08:13:25;;;;;;;31.97;19.57;;;;;;;;;;4956717;28;20396;-63
2022/10/09 08:15:51;;;;;;;29.50;19.47;;;;;;;;;;4951605;28;20493;-63
2022/10/09 08:18:17;;;;;;;26.23;18.50;;;;;;;;;;4969006;28;20047;-63
2022/10/09 08:20:43;;;;;;;28.57;18.43;;;;;;;;;;4968431;28;20082;-63
2022/10/09 08:23:09;;;;;;;30.63;16.87;;;;;;;;;;4960737;28;20134;-62
2022/10/09 08:25:36;;;;;;;31.97;18.20;;;;;;;;;;4963971;28;20121;-63
2022/10/09 08:28:02;;;;;;;31.67;17.70;;;;;;;;;;4958069;28;20038;-63
2022/10/09 08:30:28;;;;;;;26.20;16.43;;;;;;;;;;4968913;28;21062;-62
2022/10/09 08:32:54;;;;;;;26.90;17.20;;;;;;;;;;4962559;28;20039;-63
2022/10/09 08:35:20;;;;;;;29.60;16.07;;;;;;;;;;4966165;28;20058;-63
2022/10/09 08:37:46;;;;;;;21.40;13.80;;;;;;;;;;4961940;28;20035;-63
2022/10/09 08:40:17;;;;;;;23.60;15.33;;;;;;;;;;4960898;28;20113;-63
2022/10/09 08:42:47;;;;;;;23.07;14.00;;;;;;;;;;4966943;28;20074;-63
2022/10/09 08:45:17;;;;;;;22.57;14.20;;;;;;;;;;4949561;28;20047;-63
2022/10/09 08:47:45;;;;;;;29.23;15.87;;;;;;;;;;4966436;28;20588;-63
2022/10/09 08:50:16;;;;;;;23.97;14.87;;;;;;;;;;4956219;28;20134;-63
2022/10/09 08:52:42;;;;;;;21.47;14.63;;;;;;;;;;4961162;28;20039;-63
2022/10/09 08:55:17;;;;;;;26.20;16.07;;;;;;;;;;4957896;28;20062;-63
2022/10/09 08:57:44;;;;;;;20.40;14.03;;;;;;;;;;4950000;28;20109;-63
2022/10/09 09:00:15;;;;;;;25.30;14.27;;;;;;;;;;4957289;28;20050;-63
2022/10/09 09:02:49;;;;;;;18.97;12.83;;;;;;;;;;4957841;28;20051;-63
2022/10/09 09:05:30;;;;;;;17.00;11.70;;;;;;;;;;4949790;28;20449;-63
2022/10/09 09:08:13;;;;;;;14.47;8.20;;;;;;;;;;4963046;28;20047;-63
2022/10/09 09:10:46;;;;;;;12.10;7.38;;;;;;;;;;4968271;28;20086;-63
2022/10/09 09:13:30;;;;;;;13.70;6.63;;;;;;;;;;4968610;28;20047;-63
2022/10/09 09:16:07;;;;;;;12.47;6.10;;;;;;;;;;4960635;28;20046;-63
2022/10/09 09:18:51;;;;;;;18.67;7.00;;;;;;;;;;4968624;28;20117;-63
2022/10/09 09:21:31;;;;;;;12.43;6.67;;;;;;;;;;4954589;28;20126;-63
2022/10/09 09:23:58;;;;;;;9.93;5.00;;;;;;;;;;4968005;28;20121;-63
2022/10/09 09:26:26;;;;;;;8.30;4.47;;;;;;;;;;4964125;28;20039;-63
2022/10/09 09:28:56;;;;;;;9.10;3.60;;;;;;;;;;4963738;28;20050;-63
2022/10/09 09:31:23;;;;;;;9.47;3.90;;;;;;;;;;4965692;28;20099;-63
2022/10/09 09:33:55;;;;;;;9.53;3.80;;;;;;;;;;4957240;28;20332;-63
2022/10/09 09:36:39;;;;;;;10.03;3.00;;;;;;;;;;4949244;28;20085;-63
2022/10/09 09:39:06;;;;;;;12.47;4.17;;;;;;;;;;4957644;28;20048;-63
2022/10/09 09:41:32;;;;;;;9.43;3.13;;;;;;;;;;4957366;28;20394;-63
2022/10/09 09:43:58;;;;;;;13.07;3.50;;;;;;;;;;4961636;28;20047;-63
2022/10/09 09:46:27;;;;;;;11.73;3.50;;;;;;;;;;4968731;28;20047;-64
2022/10/09 09:48:53;;;;;;;8.17;3.30;;;;;;;;;;4955171;28;20567;-63
2022/10/09 09:51:21;;;;;;;8.53;3.57;;;;;;;;;;4971241;28;20058;-63
2022/10/09 09:53:49;;;;;;;9.97;3.43;;;;;;;;;;4971860;28;20563;-63
2022/10/09 09:56:16;;;;;;;9.00;3.17;;;;;;;;;;4963750;28;20097;-63
2022/10/09 09:58:50;;;;;;;7.90;3.27;;;;;;;;;;4965145;28;20081;-64
2022/10/09 10:01:34;;;;;;;11.03;3.20;;;;;;;;;;4959595;28;20492;-64
2022/10/09 10:04:02;;;;;;;12.80;3.27;;;;;;;;;;4960551;28;20160;-63
2022/10/09 10:06:28;;;;;;;8.43;4.07;;;;;;;;;;4960746;28;20173;-63
2022/10/09 10:09:02;;;;;;;10.10;4.40;;;;;;;;;;4966539;28;20109;-63
2022/10/09 10:11:29;;;;;;;12.00;3.97;;;;;;;;;;4963541;28;20165;-63
2022/10/09 10:13:55;;;;;;;11.07;2.97;;;;;;;;;;4971255;28;20046;-63
2022/10/09 10:16:23;;;;;;;11.10;3.50;;;;;;;;;;4964750;28;20261;-63
2022/10/09 10:18:49;;;;;;;11.57;3.37;;;;;;;;;;4954340;28;20560;-63
2022/10/09 10:21:17;;;;;;;11.20;3.33;;;;;;;;;;4966594;28;20496;-63
2022/10/09 10:23:55;;;;;;;13.60;3.70;;;;;;;;;;4960707;28;20050;-64
2022/10/09 10:26:29;;;;;;;8.40;3.30;;;;;;;;;;4964628;28;20047;-63
2022/10/09 10:29:04;;;;;;;8.03;3.23;;;;;;;;;;4970639;28;20043;-63
2022/10/09 10:31:50;;;;;;;10.40;3.13;;;;;;;;;;4967133;28;20508;-63
2022/10/09 10:34:20;;;;;;;10.67;3.30;;;;;;;;;;4953321;28;20370;-63
2022/10/09 10:36:47;;;;;;;9.63;3.30;;;;;;;;;;4966162;28;20098;-63
2022/10/09 10:39:21;;;;;;;7.53;3.03;;;;;;;;;;4952011;28;20557;-63
2022/10/09 10:41:49;;;;;;;11.03;3.30;;;;;;;;;;4970085;28;20057;-63
2022/10/09 10:44:22;;;;;;;11.73;3.63;;;;;;;;;;4962919;28;20611;-63
2022/10/09 10:46:54;;;;;;;11.43;3.50;;;;;;;;;;4970220;28;20121;-63
2022/10/09 10:49:22;;;;;;;10.70;3.53;;;;;;;;;;4964810;28;20493;-63
2022/10/09 10:52:00;;;;;;;12.10;3.43;;;;;;;;;;4950533;28;20564;-63
2022/10/09 10:54:32;;;;;;;12.83;3.90;;;;;;;;;;4960093;28;20633;-63
2022/10/09 10:57:14;;;;;;;12.57;4.32;;;;;;;;;;4961253;28;20122;-63
2022/10/09 10:59:50;;;;;;;9.13;3.53;;;;;;;;;;4961156;28;20050;-63
2022/10/09 11:02:19;;;;;;;9.37;4.13;;;;;;;;;;4962642;28;20055;-63
2022/10/09 11:05:00;;;;;;;11.37;4.67;;;;;;;;;;4956830;28;20102;-63
2022/10/09 11:07:32;;;;;;;9.77;3.73;;;;;;;;;;4954021;28;21177;-63
2022/10/09 11:10:02;;;;;;;7.57;2.83;;;;;;;;;;4970253;28;20066;-63
2022/10/09 11:12:35;;;;;;;11.30;4.10;;;;;;;;;;4967446;28;20055;-63
2022/10/09 11:15:20;;;;;;;11.27;3.22;;;;;;;;;;4951774;28;20138;-63
2022/10/09 11:17:59;;;;;;;12.17;3.77;;;;;;;;;;4969922;28;20138;-63
2022/10/09 11:20:43;;;;;;;11.63;3.57;;;;;;;;;;4962559;28;20117;-64
2022/10/09 11:23:12;;;;;;;11.40;4.07;;;;;;;;;;4962581;28;20046;-64
2022/10/09 11:25:48;;;;;;;9.33;3.57;;;;;;;;;;4962037;28;20517;-63
2022/10/09 11:28:21;;;;;;;9.93;3.40;;;;;;;;;;4951231;28;20134;-63
2022/10/09 11:30:54;;;;;;;12.00;3.33;;;;;;;;;;4966581;28;20126;-63
2022/10/09 11:33:20;;;;;;;;;;;;;;;;;;4966991;28;20066;-63
2022/10/09 11:35:48;;;;;;;11.03;3.40;;;;;;;;;;4964384;28;19922;-63
2022/10/09 11:38:23;;;;;;;9.40;3.10;;;;;;;;;;4961621;28;20047;-63
2022/10/09 11:40:49;;;;;;;10.63;3.57;;;;;;;;;;4969670;28;20038;-63
2022/10/09 11:43:24;;;;;;;7.90;3.97;;;;;;;;;;4970074;28;20043;-64
2022/10/09 11:45:57;;;;;;;9.40;3.00;;;;;;;;;;4969224;28;20039;-63
2022/10/09 11:48:26;;;;;;;8.80;3.15;;;;;;;;;;4962281;28;20428;-64
2022/10/09 11:50:52;;;;;;;10.23;3.33;;;;;;;;;;4969367;28;20051;-64
2022/10/09 11:53:20;;;;;;;13.03;3.23;;;;;;;;;;4964232;28;20101;-63
2022/10/09 11:55:47;;;;;;;10.93;2.97;;;;;;;;;;4966312;28;20393;-64
2022/10/09 11:58:19;;;;;;;11.27;3.80;;;;;;;;;;4969866;28;20428;-63
2022/10/09 12:00:46;;;;;;;10.70;3.47;;;;;;;;;;4969590;28;20047;-63
2022/10/09 12:03:33;;;;;;;12.03;3.90;;;;;;;;;;4951037;28;20047;-64
2022/10/09 12:06:10;;;;;;;7.83;2.90;;;;;;;;;;4965834;28;20564;-64
2022/10/09 12:08:37;;;;;;;9.00;2.90;;;;;;;;;;4969568;28;20066;-63
2022/10/09 12:11:09;;;;;;;10.77;2.87;;;;;;;;;;4962080;28;20051;-63
2022/10/09 12:13:39;;;;;;;9.27;3.30;;;;;;;;;;4966889;28;20406;-63
2022/10/09 12:16:10;;;;;;;10.87;3.60;;;;;;;;;;4958673;28;20051;-64
2022/10/09 12:18:45;;;;;;;8.67;2.80;;;;;;;;;;4950747;28;20086;-63
2022/10/09 12:21:25;;;;;;;9.17;2.60;;;;;;;;;;4957825;28;20039;-63
2022/10/09 12:23:52;;;;;;;10.27;2.97;;;;;;;;;;4960773;28;20050;-64
2022/10/09 12:26:19;;;;;;;6.80;2.83;;;;;;;;;;4961590;28;20062;-63
2022/10/09 12:28:46;;;;;;;11.13;4.23;;;;;;;;;;4960432;28;20523;-64
2022/10/09 12:31:24;;;;;;;7.67;3.07;;;;;;;;;;4949485;28;20070;-64
2022/10/09 12:33:55;;;;;;;8.23;2.63;;;;;;;;;;4957593;28;20243;-64
2022/10/09 12:36:23;;;;;;;6.00;2.30;;;;;;;;;;4969000;28;20353;-63
2022/10/09 12:38:49;;;;;;;6.23;2.70;;;;;;;;;;4959531;28;20500;-63
2022/10/09 12:41:24;;;;;;;6.77;2.57;;;;;;;;;;4952541;28;20051;-64
2022/10/09 12:43:51;;;;;;;5.37;2.00;;;;;;;;;;4967846;28;20059;-64
2022/10/09 12:46:38;;;;;;;7.67;2.40;;;;;;;;;;4960770;28;20046;-63
2022/10/09 12:49:07;;;;;;;6.67;2.00;;;;;;;;;;4955482;28;20043;-63
2022/10/09 12:51:33;;;;;;;6.80;2.53;;;;;;;;;;4960155;28;20051;-64
2022/10/09 12:53:59;;;;;;;6.50;2.27;;;;;;;;;;4968937;28;20038;-64
2022/10/09 12:56:27;;;;;;;6.40;1.90;;;;;;;;;;4964548;28;20058;-64
2022/10/09 12:58:54;;;;;;;7.63;2.23;;;;;;;;;;4952188;28;20070;-64
2022/10/09 13:01:21;;;;;;;5.43;2.30;;;;;;;;;;4968469;28;20083;-64
2022/10/09 13:03:54;;;;;;;5.93;1.73;;;;;;;;;;4968511;28;20043;-64
2022/10/09 13:06:22;;;;;;;5.80;2.20;;;;;;;;;;4960793;28;20047;-63
2022/10/09 13:08:53;;;;;;;4.70;1.90;;;;;;;;;;4968811;28;20089;-64
2022/10/09 13:11:31;;;;;;;5.73;1.80;;;;;;;;;;4968127;28;20105;-64
2022/10/09 13:13:58;;;;;;;6.90;1.80;;;;;;;;;;4960883;28;20035;-63
2022/10/09 13:16:24;;;;;;;7.37;2.30;;;;;;;;;;4966943;28;20113;-64
2022/10/09 13:19:01;;;;;;;8.30;1.80;;;;;;;;;;4968536;28;20053;-64
2022/10/09 13:21:32;;;;;;;7.67;2.03;;;;;;;;;;4959988;28;20043;-63
2022/10/09 13:24:12;;;;;;;6.53;2.20;;;;;;;;;;4961199;28;20051;-64
2022/10/09 13:26:39;;;;;;;7.83;1.70;;;;;;;;;;4953761;28;20395;-64
2022/10/09 13:29:05;;;;;;;6.87;2.43;;;;;;;;;;4964469;28;20051;-64
2022/10/09 13:31:32;;;;;;;9.47;2.10;;;;;;;;;;4972222;28;20058;-63
2022/10/09 13:33:59;;;;;;;5.90;1.45;;;;;;;;;;4963263;28;20101;-64
2022/10/09 13:36:25;;;;;;;4.47;1.20;;;;;;;;;;4971918;28;20404;-64
2022/10/09 13:38:51;;;;;;;5.90;2.20;;;;;;;;;;4971461;28;20066;-63
2022/10/09 13:41:20;;;;;;;5.38;2.10;;;;;;;;;;4971924;28;20074;-64
2022/10/09 13:43:47;;;;;;;5.15;1.83;;;;;;;;;;4958013;28;20099;-64
2022/10/09 13:46:15;;;;;;;6.50;2.13;;;;;;;;;;4961203;28;20051;-63
2022/10/09 13:48:41;;;;;;;4.97;1.93;;;;;;;;;;4968951;28;20530;-64
2022/10/09 13:51:07;;;;;;;7.38;2.22;;;;;;;;;;4952914;28;20040;-63
2022/10/09 13:53:33;;;;;;;8.95;2.38;;;;;;;;;;4959725;28;20046;-64
2022/10/09 13:56:00;;;;;;;8.13;2.30;;;;;;;;;;4967916;28;20437;-63
2022/10/09 13:58:26;;;;;;;4.50;2.10;;;;;;;;;;4952482;28;20522;-64
2022/10/09 14:00:52;;;;;;;7.10;1.80;;;;;;;;;;4962773;28;20042;-63
2022/10/09 14:03:18;;;;;;;8.23;1.85;;;;;;;;;;4959316;28;20047;-64
2022/10/09 14:05:44;;;;;;;5.55;2.30;;;;;;;;;;4960782;28;20047;-64
2022/10/09 14:08:11;;;;;;;7.30;2.63;;;;;;;;;;4968323;28;20046;-64
2022/10/09 14:10:43;;;;;;;6.20;1.83;;;;;;;;;;4961152;28;20420;-64
2022/10/09 14:13:13;;;;;;;8.38;2.72;;;;;;;;;;4960500;28;20049;-64
2022/10/09 14:15:40;;;;;;;6.40;2.70;;;;;;;;;;4964816;28;20169;-64
2022/10/09 14:18:06;;;;;;;6.22;1.90;;;;;;;;;;4964346;28;20369;-64
2022/10/09 14:20:33;;;;;;;6.13;2.10;;;;;;;;;;4952040;28;20047;-64
2022/10/09 14:22:59;;;;;;;4.93;2.20;;;;;;;;;;4970528;28;20121;-64
2022/10/09 14:25:25;;;;;;;7.57;2.58;;;;;;;;;;4955760;28;20429;-64
2022/10/09 14:27:51;;;;;;;8.05;2.40;;;;;;;;;;4955210;28;20489;-64
2022/10/09 14:30:17;;;;;;;7.78;2.85;;;;;;;;;;4967005;28;20067;-64
2022/10/09 14:32:43;;;;;;;9.32;3.13;;;;;;;;;;4959985;28;20055;-64
2022/10/09 14:35:10;;;;;;;5.57;1.70;;;;;;;;;;4960184;28;20520;-64